ADDS METAR Data INFO
IDs: Format: Raw Decoded Include TAF

Data at: 1213 UTC 20 Jul 2018

Region: TOP
Region: TOP
KATL 201152Z 08008KT 8SM OVC010 24/21 A3001 RMK AO2 SLP154 CIG 008V012 60000 70004 T02390211 10239 20233 53014

KBOS 201154Z 29006KT 10SM CLR 23/14 A3017 RMK AO2 SLP216 T02280144 10228 20189 53009

KBWI 201154Z 00000KT 10SM FEW180 SCT250 23/19 A3013 RMK AO2 SLP200 T02280189 10228 20172 53009

KCLE 201151Z 16011KT 10SM FEW055 SCT130 BKN250 23/17 A2995 RMK AO2 SLP134 T02280167 10228 20200 56003

KCLT 201152Z VRB06KT 10SM FEW030 SCT170 BKN250 24/21 A3007 RMK AO2 SLP172 T02390211 10239 20217 53009

KCVG 201152Z 19006KT 2 1/2SM -RA BR SCT033 BKN070 OVC090 19/18 A2994 RMK AO2 SFC VIS 3 LTG DSNT E AND SE RAB17 SLP130 P0017 60043 70043 T01940178 10228 20189 53017 $

KDCA 201152Z 00000KT 10SM FEW070 FEW200 BKN250 24/19 A3013 RMK AO2 SLP203 T02390189 10239 20217 53009

KDEN 201153Z 28007KT 10SM BKN220 19/11 A3009 RMK AO2 SLP093 T01940111 10228 20189 53004

KDFW 201153Z 19008KT 10SM FEW180 BKN250 27/19 A2989 RMK AO2 SLP108 T02720189 10333 20272 53018

KDTW 201153Z 12006KT 9SM FEW055 BKN140 OVC230 23/17 A2989 RMK AO2 SLP115 T02280172 10228 20200 56004

KEWR 201151Z 30003KT 10SM SCT250 23/18 A3016 RMK AO2 SLP211 T02330183 10233 20194 51009

KFLL 201153Z 21004KT 10SM FEW030 FEW080 SCT150 BKN250 28/26 A3001 RMK AO2 SLP161 T02830256 10283 20272 53012

KIAD 201152Z 15005KT 10SM FEW070 BKN250 22/19 A3013 RMK AO2 SLP199 T02220194 10222 20167 53007

KIAH 201153Z 25005KT 8SM BKN013 BKN250 27/26 A2994 RMK AO2 SLP138 T02720261 10283 20267 53006

KJFK 201151Z 07003KT 10SM FEW015 FEW350 23/19 A3017 RMK AO2 SLP215 T02330194 10233 20189 51009

KLAS 201156Z 19007KT 10SM FEW200 OVC250 29/17 A2993 RMK AO2 SLP101 70004 T02890167 10294 20283 56016

KLAX 201153Z 26007KT 10SM FEW008 BKN010 20/18 A2993 RMK AO2 SLP133 T02000178 10211 20200 53001

KLGA 201151Z 06007KT 10SM FEW250 22/18 A3016 RMK AO2 SLP211 T02220183 10228 20211 52010 $

KMCO 201153Z 19006KT 10SM FEW025 FEW120 SCT250 26/26 A2998 RMK AO2 SLP150 CB DSNT SW 70066 T02610256 10261 20244 53007

KMDW 201153Z 20011KT 10SM FEW060 FEW150 FEW250 23/19 A2969 RMK AO2 SLP042 70001 T02330189 10256 20233 56008

KMEM 201154Z 17007KT 10SM FEW060 FEW150 SCT250 25/23 A2991 RMK AO2 SLP122 T02500228 10261 20239 53010

KMIA 201153Z 22003KT 10SM FEW025 BKN250 27/24 A3002 RMK AO2 SLP164 CB DSNT NE-SE MOV N 70007 T02720244 10272 20256 53012

KMSP 201158Z 36009KT 10SM BKN010 OVC024 19/18 A2977 RMK AO2 PRESENT WX VCSH T01890178

KORD 201151Z 21014G20KT 10SM FEW045 FEW250 23/17 A2967 RMK AO2 SLP042 70003 T02280172 10256 20228 56008

KPDX 201153Z 00000KT 10SM SCT039 12/08 A3021 RMK AO2 SLP227 T01220078 10156 20122 51009

KPHL 201154Z 08004KT 10SM BKN250 23/18 A3015 RMK AO2 SLP208 T02280183 10228 20183 53005 $

KPHX 201151Z 29009KT 10SM FEW080 SCT160 BKN250 33/18 A2983 RMK AO2 SLP077 T03330183 10367 20333 53001

KPIT 201151Z 14005KT 10SM FEW050 SCT070 21/14 A3003 RMK AO2 SLP168 T02060144 10211 20189 53004

KSAN 201151Z 29003KT 10SM BKN012 21/18 A2994 RMK AO2 SLP139 T02110178 10222 20211 57002

KSEA 201153Z 26004KT 10SM OVC015 14/10 A3017 RMK AO2 SLP222 T01390100 10178 20139 51009

KSFO 201156Z 28005KT 10SM CLR 13/12 A2989 RMK AO2 SLP120 T01330122 10150 20133 50002

KSLC 201154Z 16007KT 10SM SCT150 BKN200 25/09 A3004 RMK AO2 SLP104 T02500089 10289 20244 51003

KSTL 201151Z 26013KT 10SM SCT090 SCT200 24/21 A2984 RMK AO2 LTG DSNT S AND SW SLP091 CB DSNT S MOV SE ACC W AND OHD 70002 T02440211 10250 20228 53006

KTPA 201153Z 16006KT 10SM SCT024CB SCT055 BKN250 28/25 A2997 RMK AO2 RAB1054E11 SLP147 CB SE-SW MOV NE P0008 60008 70014 T02780250 10283 20267 53007